Time;durP1;ratioP1;P1;durP2;ratioP2;P2;SDS_P1;SDS_P2;PMS_P1;PMS_P2;Temp;Humidity;BMP_temperature;BMP_pressure;BME280_temperature;BME280_humidity;BME280_pressure;Samples;Min_cycle;Max_cycle;Signal;HPM_P1;HPM_P2
2023/01/23 00:00:27;;;;;;;;;;;;;;;18.42;43.37;102123.19;106073;1282;61254;-84
2023/01/23 00:02:55;;;;;;;;;;;;;;;18.41;43.43;102120.52;106083;1282;61298;-84
2023/01/23 00:05:21;;;;;;;;;;;;;;;18.41;43.42;102125.17;106194;1282;61236;-84
2023/01/23 00:07:47;;;;;;;;;;;;;;;18.41;43.35;102128.56;106101;1282;61180;-84
2023/01/23 00:10:15;;;;;;;;;;;;;;;18.41;43.36;102130.35;106091;1282;61283;-85
2023/01/23 00:12:42;;;;;;;;;;;;;;;18.41;43.31;102133.04;106201;1282;61581;-85
2023/01/23 00:15:08;;;;;;;;;;;;;;;18.40;43.36;102135.17;106229;1282;61270;-85
2023/01/23 00:17:35;;;;;;;;;;;;;;;18.40;43.27;102136.97;106062;1282;61129;-85
2023/01/23 00:20:00;;;;;;;;;;;;;;;18.40;43.44;102137.14;106086;1282;75579;-85
2023/01/23 00:22:28;;;;;;;;;;;;;;;18.40;43.33;102138.94;106006;1282;61311;-85
2023/01/23 00:24:58;;;;;;;;;;;;;;;18.39;43.30;102141.10;106103;1282;61309;-84
2023/01/23 00:27:26;;;;;;;;;;;;;;;18.39;43.30;102144.52;106107;1282;73476;-84
2023/01/23 00:29:52;;;;;;;;;;;;;;;18.39;43.12;102145.94;106082;1282;74317;-85
2023/01/23 00:32:18;;;;;;;;;;;;;;;18.38;43.22;102151.66;106101;1282;61300;-85
2023/01/23 00:34:45;;;;;;;;;;;;;;;18.38;43.26;102151.14;106088;1282;61378;-85
2023/01/23 00:37:10;;;;;;;;;;;;;;;18.38;43.35;102151.16;106090;1282;61305;-84
2023/01/23 00:39:36;;;;;;;;;;;;;;;18.38;43.26;102151.88;105955;1282;61270;-84
2023/01/23 00:42:01;;;;;;;;;;;;;;;18.38;43.25;102147.77;106083;1282;61231;-85
2023/01/23 00:44:27;;;;;;;;;;;;;;;18.37;43.26;102147.63;106123;1282;61788;-84
2023/01/23 00:46:52;;;;;;;;;;;;;;;18.37;43.20;102150.46;106124;1282;61292;-84
2023/01/23 00:49:21;;;;;;;;;;;;;;;18.37;43.30;102154.05;106219;1282;61286;-84
2023/01/23 00:51:47;;;;;;;;;;;;;;;18.36;43.30;102156.73;106199;1282;74240;-84
2023/01/23 00:54:15;;;;;;;;;;;;;;;18.36;43.26;102161.36;106099;1282;60140;-84
2023/01/23 00:56:41;;;;;;;;;;;;;;;18.36;43.18;102160.49;106122;1282;61362;-84
2023/01/23 00:59:06;;;;;;;;;;;;;;;18.36;43.22;102161.55;106010;1282;61352;-84
2023/01/23 01:01:32;;;;;;;;;;;;;;;18.36;43.16;102162.83;106105;1287;61407;-84
2023/01/23 01:03:58;;;;;;;;;;;;;;;18.36;43.17;102165.48;106109;1282;61237;-85
2023/01/23 01:06:23;;;;;;;;;;;;;;;18.35;43.10;102165.16;106000;1289;61270;-85
2023/01/23 01:08:49;;;;;;;;;;;;;;;18.35;43.21;102163.73;106130;1282;61252;-85
2023/01/23 01:11:15;;;;;;;;;;;;;;;18.34;43.10;102168.74;106221;1282;69602;-85
2023/01/23 01:13:41;;;;;;;;;;;;;;;18.34;43.18;102177.47;106044;1284;61445;-85
2023/01/23 01:16:06;;;;;;;;;;;;;;;18.35;43.16;102181.20;106091;1282;61267;-84
2023/01/23 01:18:32;;;;;;;;;;;;;;;18.34;43.18;102177.30;106027;1282;61372;-84
2023/01/23 01:20:58;;;;;;;;;;;;;;;18.33;43.21;102179.46;106196;1282;61294;-84
2023/01/23 01:23:23;;;;;;;;;;;;;;;18.34;43.03;102180.35;106036;1282;61696;-84
2023/01/23 01:25:49;;;;;;;;;;;;;;;18.33;42.98;102179.66;106006;1282;74351;-84
2023/01/23 01:28:15;;;;;;;;;;;;;;;18.33;43.01;102178.77;105364;1282;1198569;-84
2023/01/23 01:30:40;;;;;;;;;;;;;;;18.33;43.04;102181.99;106004;1282;61272;-85
2023/01/23 01:33:06;;;;;;;;;;;;;;;18.33;43.08;102178.44;106122;1282;61369;-84
2023/01/23 01:35:32;;;;;;;;;;;;;;;18.33;43.04;102184.15;106116;1282;61271;-84
2023/01/23 01:37:57;;;;;;;;;;;;;;;18.33;42.93;102189.67;106043;1282;61292;-85
2023/01/23 01:40:24;;;;;;;;;;;;;;;18.32;43.02;102188.98;106080;1282;61333;-84
2023/01/23 01:42:58;;;;;;;;;;;;;;;18.32;42.95;102186.67;106124;1282;61472;-84
2023/01/23 01:45:42;;;;;;;;;;;;;;;18.31;43.09;102188.30;106239;1282;72792;-84
2023/01/23 01:48:08;;;;;;;;;;;;;;;18.32;42.89;102186.16;106191;1282;75505;-85
2023/01/23 01:50:34;;;;;;;;;;;;;;;18.31;43.06;102189.20;106245;1283;61275;-85
2023/01/23 01:53:01;;;;;;;;;;;;;;;18.31;42.89;102190.27;106124;1282;61866;-84
2023/01/23 01:55:26;;;;;;;;;;;;;;;18.31;43.01;102191.52;106192;1282;61305;-85
2023/01/23 01:57:53;;;;;;;;;;;;;;;18.31;43.07;102196.70;106281;1282;61268;-84
2023/01/23 02:00:18;;;;;;;;;;;;;;;18.31;43.02;102194.02;106260;1282;61301;-85
2023/01/23 02:02:47;;;;;;;;;;;;;;;18.31;42.85;102190.45;106110;1282;61355;-85
2023/01/23 02:05:18;;;;;;;;;;;;;;;18.31;43.03;102187.79;106134;1282;61300;-85
2023/01/23 02:07:53;;;;;;;;;;;;;;;18.31;42.99;102187.77;106116;1282;75756;-85
2023/01/23 02:10:20;;;;;;;;;;;;;;;18.30;42.85;102188.87;106235;1282;61083;-85
2023/01/23 02:12:46;;;;;;;;;;;;;;;18.30;42.93;102189.94;106200;1282;61350;-84
2023/01/23 02:15:12;;;;;;;;;;;;;;;18.30;42.99;102188.52;106231;1282;61260;-84
2023/01/23 02:17:38;;;;;;;;;;;;;;;18.30;42.99;102194.41;106107;1287;61346;-85
2023/01/23 02:20:23;;;;;;;;;;;;;;;18.29;42.93;102187.51;106105;1282;61378;-82
2023/01/23 02:23:09;;;;;;;;;;;;;;;18.29;42.91;102192.11;106242;1282;61033;-84
2023/01/23 02:25:55;;;;;;;;;;;;;;;18.29;42.79;102190.70;106221;1282;72538;-83
2023/01/23 02:28:21;;;;;;;;;;;;;;;18.29;42.88;102196.59;106130;1282;74305;-84
2023/01/23 02:30:49;;;;;;;;;;;;;;;18.29;42.75;102196.96;106138;1282;61261;-83
2023/01/23 02:33:24;;;;;;;;;;;;;;;18.29;42.92;102192.13;106104;1282;61146;-83
2023/01/23 02:35:58;;;;;;;;;;;;;;;18.28;42.78;102192.86;106241;1282;72392;-84
2023/01/23 02:38:25;;;;;;;;;;;;;;;18.28;42.76;102187.89;106093;1282;74562;-84
2023/01/23 02:40:53;;;;;;;;;;;;;;;18.28;42.88;102182.90;106010;1282;61220;-84
2023/01/23 02:43:20;;;;;;;;;;;;;;;18.28;42.75;102189.86;106064;1285;61295;-86
2023/01/23 02:45:46;;;;;;;;;;;;;;;18.27;42.75;102190.95;106097;1282;71443;-83
2023/01/23 02:48:12;;;;;;;;;;;;;;;18.26;42.82;102192.90;106082;1282;61113;-83
2023/01/23 02:50:37;;;;;;;;;;;;;;;18.26;42.74;102192.92;106022;1282;61151;-83
2023/01/23 02:53:04;;;;;;;;;;;;;;;18.26;42.75;102195.09;106132;1282;61419;-83
2023/01/23 02:55:33;;;;;;;;;;;;;;;18.25;42.66;102192.95;106085;1282;73507;-83
2023/01/23 03:00:43;;;;;;;;;;;;;;;18.25;42.71;102192.27;106128;1282;61170;-83
2023/01/23 03:03:09;;;;;;;;;;;;;;;18.25;42.82;102194.60;105988;1282;61261;-83
2023/01/23 03:05:35;;;;;;;;;;;;;;;18.25;42.66;102196.90;106123;1283;61334;-83
2023/01/23 03:08:00;;;;;;;;;;;;;;;18.24;42.72;102192.63;106071;1282;59905;-84
2023/01/23 03:10:33;;;;;;;;;;;;;;;18.23;42.74;102193.21;105990;1282;61335;-83
2023/01/23 03:13:03;;;;;;;;;;;;;;;18.24;42.66;102200.86;106118;1282;61266;-83
2023/01/23 03:15:29;;;;;;;;;;;;;;;18.23;42.65;102199.45;106225;1282;72556;-84
2023/01/23 03:18:21;;;;;;;;;;;;;;;18.23;42.61;102204.79;106093;1282;75525;-84
2023/01/23 03:20:46;;;;;;;;;;;;;;;18.23;42.64;102208.19;105550;1288;61323;-84
2023/01/23 03:23:13;;;;;;;;;;;;;;;18.23;42.44;102207.83;105459;1288;61286;-84
2023/01/23 03:25:42;;;;;;;;;;;;;;;18.22;42.60;102214.09;105653;1288;61244;-84
2023/01/23 03:30:11;;;;;;;;;;;;;;;18.23;42.69;102212.46;105606;1288;74737;-84
2023/01/23 03:30:54;;;;;;;;;;;;;;;18.23;42.57;102218.52;105595;1287;61436;-84
2023/01/23 03:33:19;;;;;;;;;;;;;;;18.22;42.71;102214.09;105607;1288;61395;-84
2023/01/23 03:35:45;;;;;;;;;;;;;;;18.22;42.58;102220.16;105537;1288;61254;-84
2023/01/23 03:38:11;;;;;;;;;;;;;;;18.22;42.63;102217.66;105599;1288;61506;-84
2023/01/23 03:43:23;;;;;;;;;;;;;;;18.21;42.38;102219.11;105566;1289;61519;-84
2023/01/23 03:45:49;;;;;;;;;;;;;;;18.21;42.60;102216.45;105474;1288;61556;-84
2023/01/23 03:48:14;;;;;;;;;;;;;;;18.21;42.56;102217.52;105446;1288;61340;-84
2023/01/23 03:50:40;;;;;;;;;;;;;;;18.21;42.45;102218.59;105469;1288;60048;-83
2023/01/23 03:53:09;;;;;;;;;;;;;;;18.21;42.37;102221.27;105574;1293;61357;-83
2023/01/23 03:55:34;;;;;;;;;;;;;;;18.21;42.41;102223.42;105614;1288;61929;-84
2023/01/23 03:58:01;;;;;;;;;;;;;;;18.21;42.50;102224.66;105755;1282;61289;-84
2023/01/23 04:00:27;;;;;;;;;;;;;;;18.20;42.44;102227.34;106006;1284;61346;-83
2023/01/23 04:02:53;;;;;;;;;;;;;;;18.20;42.45;102231.63;105997;1282;61262;-83
2023/01/23 04:05:19;;;;;;;;;;;;;;;18.20;42.43;102229.88;106092;1287;61307;-84
2023/01/23 04:07:45;;;;;;;;;;;;;;;18.20;42.48;102237.34;106080;1282;61427;-84
2023/01/23 04:10:10;;;;;;;;;;;;;;;18.19;42.38;102239.88;106112;1282;61218;-84
2023/01/23 04:12:38;;;;;;;;;;;;;;;18.19;42.35;102240.74;106082;1287;61243;-84
2023/01/23 04:15:03;;;;;;;;;;;;;;;18.19;42.37;102243.98;106247;1282;60998;-84
2023/01/23 04:17:29;;;;;;;;;;;;;;;18.19;42.52;102248.27;106107;1287;61350;-83
2023/01/23 04:19:55;;;;;;;;;;;;;;;18.19;42.45;102248.42;106098;1282;61288;-83
2023/01/23 04:22:20;;;;;;;;;;;;;;;18.19;42.46;102254.33;106313;1282;61259;-84
2023/01/23 04:24:49;;;;;;;;;;;;;;;18.19;42.36;102249.88;106353;1286;61352;-83
2023/01/23 04:27:14;;;;;;;;;;;;;;;18.19;42.41;102252.01;106254;1285;59434;-83
2023/01/23 04:29:40;;;;;;;;;;;;;;;18.18;42.38;102255.05;105994;1285;61353;-84
2023/01/23 04:32:08;;;;;;;;;;;;;;;18.19;42.34;102255.58;106009;1283;61239;-83
2023/01/23 04:34:36;;;;;;;;;;;;;;;18.19;42.39;102254.50;105968;1284;61261;-83
2023/01/23 04:37:02;;;;;;;;;;;;;;;18.19;42.47;102257.72;105978;1288;73512;-83
2023/01/23 04:39:54;;;;;;;;;;;;;;;18.18;42.36;102260.77;105956;1285;61357;-83
2023/01/23 04:42:19;;;;;;;;;;;;;;;18.18;42.35;102263.62;105614;1289;61186;-83
2023/01/23 04:44:46;;;;;;;;;;;;;;;18.18;42.39;102265.60;105419;1293;61260;-83
2023/01/23 04:47:17;;;;;;;;;;;;;;;18.17;42.28;102264.36;105594;1288;73470;-83
2023/01/23 04:49:51;;;;;;;;;;;;;;;18.17;42.36;102266.50;105550;1288;75196;-84
2023/01/23 04:52:17;;;;;;;;;;;;;;;18.17;42.29;102261.52;105534;1294;61430;-84
2023/01/23 04:54:43;;;;;;;;;;;;;;;18.17;42.23;102266.34;105545;1289;61253;-84
2023/01/23 04:57:09;;;;;;;;;;;;;;;18.17;42.32;102267.58;105508;1289;61269;-83
2023/01/23 04:59:34;;;;;;;;;;;;;;;18.16;42.23;102277.56;105437;1288;61378;-83
2023/01/23 05:02:03;;;;;;;;;;;;;;;18.16;42.23;102280.44;105543;1288;61343;-84
2023/01/23 05:04:31;;;;;;;;;;;;;;;18.16;42.23;102287.77;105651;1289;61637;-84
2023/01/23 05:06:58;;;;;;;;;;;;;;;18.15;42.32;102284.77;105510;1288;61132;-84
2023/01/23 05:09:26;;;;;;;;;;;;;;;18.15;42.32;102289.19;105478;1288;71725;-83
2023/01/23 05:11:52;;;;;;;;;;;;;;;18.15;42.16;102289.38;105547;1291;61400;-84
2023/01/23 05:14:21;;;;;;;;;;;;;;;18.15;42.34;102295.79;105602;1288;61336;-83
2023/01/23 05:16:46;;;;;;;;;;;;;;;18.15;42.17;102300.98;105591;1288;61183;-83
2023/01/23 05:19:12;;;;;;;;;;;;;;;18.15;42.31;102307.73;105739;1288;61302;-84
2023/01/23 05:21:38;;;;;;;;;;;;;;;18.15;42.29;102305.95;105980;1288;61134;-83
2023/01/23 05:24:03;;;;;;;;;;;;;;;18.15;42.14;102310.79;105994;1285;61346;-83
2023/01/23 05:26:29;;;;;;;;;;;;;;;18.15;42.05;102311.84;106008;1285;61374;-83
2023/01/23 05:28:56;;;;;;;;;;;;;;;18.14;42.07;102311.69;106227;1287;61275;-83
2023/01/23 05:31:24;;;;;;;;;;;;;;;18.14;42.14;102315.60;106201;1284;72516;-84
2023/01/23 05:33:50;;;;;;;;;;;;;;;18.13;42.12;102319.91;106195;1283;74455;-84
2023/01/23 05:36:15;;;;;;;;;;;;;;;18.14;42.18;102323.64;106231;1282;60107;-84
2023/01/23 05:38:41;;;;;;;;;;;;;;;18.13;42.21;102324.91;106192;1283;61259;-84
2023/01/23 05:41:16;;;;;;;;;;;;;;;18.13;42.07;102326.70;106118;1287;72453;-83
2023/01/23 05:43:42;;;;;;;;;;;;;;;18.13;42.12;102326.71;105975;1289;61823;-83
2023/01/23 05:46:07;;;;;;;;;;;;;;;18.13;42.02;102336.16;106110;1282;61720;-84
2023/01/23 05:48:33;;;;;;;;;;;;;;;18.12;42.18;102345.08;106293;1282;61735;-83
2023/01/23 05:51:01;;;;;;;;;;;;;;;18.13;42.21;102350.59;106103;1287;59358;-83
2023/01/23 05:53:26;;;;;;;;;;;;;;;18.12;42.09;102355.05;106132;1283;61314;-83
2023/01/23 05:55:52;;;;;;;;;;;;;;;18.12;42.12;102361.66;106293;1287;59203;-83
2023/01/23 05:58:18;;;;;;;;;;;;;;;18.12;42.09;102360.40;106331;1287;61227;-84
2023/01/23 06:00:44;;;;;;;;;;;;;;;18.12;42.13;102364.50;106205;1284;60999;-84
2023/01/23 06:03:10;;;;;;;;;;;;;;;18.12;42.12;102363.95;106205;1282;61203;-83
2023/01/23 06:05:35;;;;;;;;;;;;;;;18.12;42.13;102368.77;106113;1282;74562;-84
2023/01/23 06:08:01;;;;;;;;;;;;;;;18.12;42.11;102368.79;106128;1287;61270;-83
2023/01/23 06:10:26;;;;;;;;;;;;;;;18.12;42.02;102370.39;106112;1282;59315;-84
2023/01/23 06:12:52;;;;;;;;;;;;;;;18.11;41.96;102374.52;106011;1283;61347;-83
2023/01/23 06:15:18;;;;;;;;;;;;;;;18.11;41.88;102373.98;106074;1282;61281;-83
2023/01/23 06:17:44;;;;;;;;;;;;;;;18.11;42.09;102378.27;106259;1287;75492;-83
2023/01/23 06:20:13;;;;;;;;;;;;;;;18.11;41.97;102382.00;106162;1287;61214;-83
2023/01/23 06:22:38;;;;;;;;;;;;;;;18.11;41.96;102386.83;105960;1287;61315;-83
2023/01/23 06:25:04;;;;;;;;;;;;;;;18.11;42.06;102392.17;105810;1287;61247;-83
2023/01/23 06:27:30;;;;;;;;;;;;;;;18.10;42.00;102384.34;105916;1288;61167;-84
2023/01/23 06:29:56;;;;;;;;;;;;;;;18.10;41.98;102382.02;105724;1286;61438;-83
2023/01/23 06:32:38;;;;;;;;;;;;;;;;;;;;;
2023/01/23 06:35:03;;;;;;;;;;;;;;;18.10;41.96;102393.08;105877;1285;73739;-83
2023/01/23 06:37:29;;;;;;;;;;;;;;;18.10;42.04;102394.85;105822;1291;60005;-83
2023/01/23 06:39:56;;;;;;;;;;;;;;;18.10;41.93;102395.22;105980;1289;61424;-83
2023/01/23 06:42:21;;;;;;;;;;;;;;;18.09;41.89;102397.02;105964;1289;61228;-84
2023/01/23 06:44:54;;;;;;;;;;;;;;;18.09;41.88;102405.20;105742;1285;72486;-84
2023/01/23 06:47:22;;;;;;;;;;;;;;;18.09;41.93;102412.89;105999;1285;61253;-84
2023/01/23 06:49:47;;;;;;;;;;;;;;;18.09;41.91;102418.77;106091;1285;61142;-84
2023/01/23 06:52:13;;;;;;;;;;;;;;;18.09;41.93;102419.30;105957;1284;61458;-84
2023/01/23 06:54:39;;;;;;;;;;;;;;;18.09;41.96;102423.05;106228;1287;61346;-84
2023/01/23 06:57:04;;;;;;;;;;;;;;;18.08;41.88;102429.13;106088;1288;61231;-84
2023/01/23 06:59:31;;;;;;;;;;;;;;;18.08;41.86;102433.21;106034;1288;61327;-84
2023/01/23 07:02:20;;;;;;;;;;;;;;;18.09;41.90;102438.91;106141;1283;61173;-84
2023/01/23 07:04:45;;;;;;;;;;;;;;;18.08;41.87;102441.95;105567;1292;61285;-84
2023/01/23 07:07:13;;;;;;;;;;;;;;;18.08;41.84;102444.98;105457;1293;73492;-84
2023/01/23 07:09:41;;;;;;;;;;;;;;;18.08;41.92;102444.09;105435;1289;74534;-84
2023/01/23 07:12:06;;;;;;;;;;;;;;;18.08;41.79;102447.84;105455;1288;61805;-84
2023/01/23 07:14:33;;;;;;;;;;;;;;;18.08;41.66;102446.95;105548;1292;59999;-84
2023/01/23 07:16:59;;;;;;;;;;;;;;;18.07;41.82;102446.79;105371;1295;61433;-84
2023/01/23 07:19:25;;;;;;;;;;;;;;;18.08;41.86;102449.09;105480;1293;60496;-84
2023/01/23 07:21:53;;;;;;;;;;;;;;;18.07;41.81;102444.65;105354;1289;61241;-83
2023/01/23 07:24:31;;;;;;;;;;;;;;;;;;;;;
2023/01/23 07:26:57;;;;;;;;;;;;;;;18.07;41.79;102441.63;105487;1290;73595;-84
2023/01/23 07:29:24;;;;;;;;;;;;;;;18.07;41.70;102442.88;105455;1294;75479;-84
2023/01/23 07:31:52;;;;;;;;;;;;;;;18.07;41.66;102444.13;105401;1288;61516;-83
2023/01/23 07:34:18;;;;;;;;;;;;;;;18.07;41.78;102448.05;105471;1290;61322;-84
2023/01/23 07:36:43;;;;;;;;;;;;;;;18.07;41.77;102445.02;105416;1294;61273;-83
2023/01/23 07:39:09;;;;;;;;;;;;;;;18.06;41.78;102445.94;105343;1288;59965;-83
2023/01/23 07:41:35;;;;;;;;;;;;;;;18.07;41.73;102450.89;105713;1282;61241;-83
2023/01/23 07:44:00;;;;;;;;;;;;;;;18.06;41.61;102453.42;106025;1283;61276;-83
2023/01/23 07:46:29;;;;;;;;;;;;;;;18.06;41.73;102457.16;106142;1287;61306;-83
2023/01/23 07:48:55;;;;;;;;;;;;;;;18.06;41.59;102461.09;105992;1283;71496;-84
2023/01/23 07:51:20;;;;;;;;;;;;;;;18.06;41.69;102463.95;105967;1282;61306;-85
2023/01/23 07:53:46;;;;;;;;;;;;;;;18.06;41.57;102468.40;106095;1282;61245;-84
2023/01/23 07:56:12;;;;;;;;;;;;;;;18.05;41.59;102477.66;106079;1282;61275;-83
2023/01/23 07:58:50;;;;;;;;;;;;;;;18.05;41.69;102474.65;106101;1287;72300;-83
2023/01/23 08:01:19;;;;;;;;;;;;;;;18.05;41.51;102474.27;106101;1285;75354;-83
2023/01/23 08:03:48;;;;;;;;;;;;;;;18.05;41.63;102473.77;106110;1282;61351;-84
2023/01/23 08:06:14;;;;;;;;;;;;;;;18.05;41.61;102471.64;106270;1282;61362;-84
2023/01/23 08:08:39;;;;;;;;;;;;;;;18.05;41.59;102470.05;106006;1283;61276;-83
2023/01/23 08:11:11;;;;;;;;;;;;;;;18.05;41.65;102471.46;105978;1282;61287;-83
2023/01/23 08:13:37;;;;;;;;;;;;;;;18.04;41.60;102472.55;106131;1282;61660;-83
2023/01/23 08:16:06;;;;;;;;;;;;;;;18.04;41.48;102480.58;106127;1282;61321;-83
2023/01/23 08:18:34;;;;;;;;;;;;;;;18.04;41.45;102491.44;106054;1282;73561;-83
2023/01/23 08:21:00;;;;;;;;;;;;;;;18.04;41.56;102493.05;106008;1282;61299;-84
2023/01/23 08:23:27;;;;;;;;;;;;;;;18.03;41.59;102495.04;106243;1282;59766;-84
2023/01/23 08:25:53;;;;;;;;;;;;;;;18.04;41.61;102495.38;106011;1282;61575;-84
2023/01/23 08:28:19;;;;;;;;;;;;;;;18.03;41.49;102492.01;105988;1284;61336;-84
2023/01/23 08:30:44;;;;;;;;;;;;;;;18.03;41.48;102496.48;106097;1287;61346;-84
2023/01/23 08:33:10;;;;;;;;;;;;;;;18.03;41.36;102494.69;106017;1282;61327;-84
2023/01/23 08:35:36;;;;;;;;;;;;;;;18.02;41.44;102500.21;106262;1282;61277;-84
2023/01/23 08:38:02;;;;;;;;;;;;;;;18.02;41.29;102498.45;106081;1287;60384;-84
2023/01/23 08:40:29;;;;;;;;;;;;;;;18.02;41.33;102496.50;106106;1282;61922;-84
2023/01/23 08:42:54;;;;;;;;;;;;;;;18.02;41.32;102508.61;106119;1282;61271;-84
2023/01/23 08:45:20;;;;;;;;;;;;;;;18.02;41.45;102507.02;106100;1282;61331;-84
2023/01/23 08:47:46;;;;;;;;;;;;;;;18.01;41.40;102507.73;106005;1283;61400;-84
2023/01/23 08:50:15;;;;;;;;;;;;;;;18.02;41.36;102506.12;105988;1282;73704;-84
2023/01/23 08:52:43;;;;;;;;;;;;;;;18.02;41.26;102503.08;106144;1282;61376;-83
2023/01/23 08:55:12;;;;;;;;;;;;;;;18.02;41.30;102502.56;106127;1282;61263;-83
2023/01/23 08:57:37;;;;;;;;;;;;;;;18.01;41.42;102499.55;105974;1284;61231;-83
2023/01/23 09:00:03;;;;;;;;;;;;;;;18.01;41.39;102499.38;105833;1285;61271;-84
2023/01/23 09:02:29;;;;;;;;;;;;;;;18.01;41.29;102500.44;105718;1285;61228;-84
2023/01/23 09:04:55;;;;;;;;;;;;;;;18.01;41.33;102494.74;105875;1285;61240;-84
2023/01/23 09:07:21;;;;;;;;;;;;;;;18.01;41.29;102494.73;105767;1285;61386;-84
2023/01/23 09:09:47;;;;;;;;;;;;;;;18.01;41.09;102495.11;105910;1285;61362;-84
2023/01/23 09:12:13;;;;;;;;;;;;;;;18.01;41.30;102490.13;105866;1285;61260;-83
2023/01/23 09:14:39;;;;;;;;;;;;;;;18.00;41.13;102490.48;105902;1285;61294;-83
2023/01/23 09:17:07;;;;;;;;;;;;;;;18.01;41.24;102491.02;106035;1284;61415;-84
2023/01/23 09:19:33;;;;;;;;;;;;;;;18.00;41.30;102480.15;105948;1286;61159;-84
2023/01/23 09:21:59;;;;;;;;;;;;;;;18.00;41.30;102476.59;106000;1290;61342;-84
2023/01/23 09:24:24;;;;;;;;;;;;;;;18.00;41.16;102476.23;105989;1291;61461;-84
2023/01/23 09:26:50;;;;;;;;;;;;;;;18.00;41.26;102476.05;105881;1286;61256;-84
2023/01/23 09:29:15;;;;;;;;;;;;;;;18.00;41.34;102476.05;105730;1286;61331;-84
2023/01/23 09:31:41;;;;;;;;;;;;;;;18.00;41.17;102475.55;105998;1285;61340;-84
2023/01/23 09:34:06;;;;;;;;;;;;;;;18.00;41.20;102474.13;105846;1287;61370;-83
2023/01/23 09:36:33;;;;;;;;;;;;;;;17.99;41.16;102470.77;106080;1286;61399;-83
2023/01/23 09:39:00;;;;;;;;;;;;;;;17.99;41.31;102465.42;106128;1283;61297;-83
2023/01/23 09:41:49;;;;;;;;;;;;;;;17.98;41.15;102466.51;105976;1283;61323;-84
2023/01/23 09:44:35;;;;;;;;;;;;;;;17.98;41.13;102463.67;105719;1287;73470;-84
2023/01/23 09:47:05;;;;;;;;;;;;;;;17.98;41.14;102463.33;105518;1289;74483;-83
2023/01/23 09:49:37;;;;;;;;;;;;;;;17.97;41.03;102468.67;105729;1289;61775;-83
2023/01/23 09:52:06;;;;;;;;;;;;;;;17.97;41.16;102462.09;105692;1288;61350;-83
2023/01/23 09:54:45;;;;;;;;;;;;;;;17.97;41.15;102468.52;105540;1288;73650;-83
2023/01/23 09:57:19;;;;;;;;;;;;;;;17.96;41.14;102468.02;105552;1294;75348;-83
2023/01/23 09:59:51;;;;;;;;;;;;;;;17.95;41.06;102471.23;105734;1288;61209;-84
2023/01/23 10:02:19;;;;;;;;;;;;;;;17.95;41.14;102470.52;105560;1289;61339;-84
2023/01/23 10:04:48;;;;;;;;;;;;;;;17.95;41.00;102474.46;105537;1289;73450;-83
2023/01/23 10:07:17;;;;;;;;;;;;;;;17.95;40.94;102470.55;105543;1289;61404;-83
2023/01/23 10:09:50;;;;;;;;;;;;;;;17.94;41.02;102469.84;105580;1290;61189;-83
2023/01/23 10:12:30;;;;;;;;;;;;;;;17.94;40.96;102474.84;105572;1288;61436;-83
2023/01/23 10:15:21;;;;;;;;;;;;;;;17.93;40.98;102467.91;105668;1291;72366;-83
2023/01/23 10:17:46;;;;;;;;;;;;;;;17.93;41.00;102464.89;105625;1288;74344;-85
2023/01/23 10:20:15;;;;;;;;;;;;;;;17.93;40.88;102460.24;105544;1289;61301;-84
2023/01/23 10:22:45;;;;;;;;;;;;;;;17.92;40.93;102456.89;105911;1283;61164;-83
2023/01/23 10:25:13;;;;;;;;;;;;;;;17.92;41.01;102451.01;106036;1283;72343;-83
2023/01/23 10:27:41;;;;;;;;;;;;;;;17.92;40.99;102452.08;106017;1283;74160;-83
2023/01/23 10:30:14;;;;;;;;;;;;;;;17.92;40.88;102449.40;106038;1283;61287;-83
2023/01/23 10:32:45;;;;;;;;;;;;;;;17.92;40.87;102449.23;106041;1283;61193;-83
2023/01/23 10:35:18;;;;;;;;;;;;;;;17.91;40.93;102450.49;105970;1283;73441;-83
2023/01/23 10:37:45;;;;;;;;;;;;;;;17.91;40.92;102441.77;106078;1285;74555;-84
2023/01/23 10:40:15;;;;;;;;;;;;;;;17.91;40.90;102446.77;106041;1283;61132;-83
2023/01/23 10:42:41;;;;;;;;;;;;;;;17.91;40.90;102450.50;105987;1283;61348;-84
2023/01/23 10:45:11;;;;;;;;;;;;;;;17.91;40.91;102452.63;105868;1283;61431;-84
2023/01/23 10:47:46;;;;;;;;;;;;;;;17.91;40.82;102455.31;105996;1283;75588;-84
2023/01/23 10:50:11;;;;;;;;;;;;;;;17.91;40.84;102456.39;106074;1285;61181;-84
2023/01/23 10:52:41;;;;;;;;;;;;;;;17.90;40.90;102451.93;105993;1283;61344;-84
2023/01/23 10:55:39;;;;;;;;;;;;;;;17.91;40.83;102444.09;105952;1288;61147;-84
2023/01/23 10:58:07;;;;;;;;;;;;;;;17.90;40.81;102438.41;105700;1285;74395;-84
2023/01/23 11:00:35;;;;;;;;;;;;;;;17.90;40.77;102435.02;105648;1285;61285;-84
2023/01/23 11:06:09;;;;;;;;;;;;;;;17.89;40.80;102433.09;105146;1293;72358;-83
2023/01/23 11:08:35;;;;;;;;;;;;;;;17.89;40.78;102432.19;105076;1293;61268;-83
2023/01/23 11:11:17;;;;;;;;;;;;;;;17.89;40.70;102429.34;105186;1293;61383;-83
2023/01/23 11:13:43;;;;;;;;;;;;;;;17.89;40.56;102427.73;105075;1292;61576;-83
2023/01/23 11:16:19;;;;;;;;;;;;;;;17.89;40.67;102428.11;105060;1293;61504;-84
2023/01/23 11:18:52;;;;;;;;;;;;;;;17.88;40.73;102430.63;105107;1294;74531;-83
2023/01/23 11:21:21;;;;;;;;;;;;;;;17.88;40.52;102432.95;105161;1294;60780;-84
2023/01/23 11:23:56;;;;;;;;;;;;;;;17.88;40.64;102435.98;105071;1293;61454;-84
2023/01/23 11:26:31;;;;;;;;;;;;;;;17.88;40.60;102441.67;105058;1294;73447;-84
2023/01/23 11:29:22;;;;;;;;;;;;;;;17.88;40.57;102442.38;105150;1293;74603;-84
2023/01/23 11:32:05;;;;;;;;;;;;;;;17.87;40.70;102437.23;105080;1292;61717;-84
2023/01/23 11:34:38;;;;;;;;;;;;;;;17.87;40.50;102436.36;105280;1292;61520;-84
2023/01/23 11:37:06;;;;;;;;;;;;;;;17.88;40.53;102442.40;105158;1292;72645;-84
2023/01/23 11:39:49;;;;;;;;;;;;;;;17.87;40.51;102435.46;105303;1290;75473;-83
2023/01/23 11:42:15;;;;;;;;;;;;;;;17.87;40.42;102436.35;105270;1291;61277;-84
2023/01/23 11:44:42;;;;;;;;;;;;;;;17.86;40.55;102437.27;105874;1284;61940;-84
2023/01/23 11:47:12;;;;;;;;;;;;;;;17.87;40.61;102438.85;106026;1284;61427;-84
2023/01/23 11:49:41;;;;;;;;;;;;;;;17.86;40.69;102439.06;106121;1284;74175;-84
2023/01/23 11:52:19;;;;;;;;;;;;;;;17.86;40.49;102439.58;106235;1284;61281;-84
2023/01/23 11:54:50;;;;;;;;;;;;;;;17.86;40.65;102434.61;105913;1284;61275;-84
2023/01/23 11:57:49;;;;;;;;;;;;;;;17.86;40.62;102434.59;106001;1285;73270;-84
2023/01/23 12:00:28;;;;;;;;;;;;;;;17.86;40.56;102442.09;105575;1286;73440;-84
2023/01/23 12:02:53;;;;;;;;;;;;;;;17.86;40.47;102444.41;105777;1286;61267;-83
2023/01/23 12:05:30;;;;;;;;;;;;;;;17.86;40.48;102451.02;105807;1286;61368;-83
2023/01/23 12:07:59;;;;;;;;;;;;;;;17.86;40.47;102452.06;105807;1289;72393;-83
2023/01/23 12:10:26;;;;;;;;;;;;;;;17.86;40.36;102455.11;105633;1286;74663;-84
2023/01/23 12:13:07;;;;;;;;;;;;;;;17.86;40.47;102452.27;105537;1286;61197;-84
2023/01/23 12:15:43;;;;;;;;;;;;;;;17.86;40.43;102460.08;105591;1289;61545;-84
2023/01/23 12:18:23;;;;;;;;;;;;;;;17.86;40.45;102455.83;105706;1290;72547;-83
2023/01/23 12:20:54;;;;;;;;;;;;;;;17.86;40.33;102463.30;105472;1286;74618;-83
2023/01/23 12:23:26;;;;;;;;;;;;;;;17.85;40.34;102462.77;105580;1286;61270;-83
2023/01/23 12:25:56;;;;;;;;;;;;;;;17.85;40.28;102463.48;105739;1287;61377;-83
2023/01/23 12:28:34;;;;;;;;;;;;;;;17.85;40.46;102463.69;105550;1286;72636;-83
2023/01/23 12:31:21;;;;;;;;;;;;;;;17.85;40.31;102460.83;105693;1286;75643;-83
2023/01/23 12:34:07;;;;;;;;;;;;;;;17.85;40.37;102458.00;105719;1286;61357;-84
2023/01/23 12:36:37;;;;;;;;;;;;;;;17.84;40.30;102454.10;105871;1283;61219;-83
2023/01/23 12:39:22;;;;;;;;;;;;;;;17.84;40.18;102455.52;105998;1283;72477;-84
2023/01/23 12:42:02;;;;;;;;;;;;;;;17.84;40.29;102462.84;106108;1283;75394;-84
2023/01/23 12:44:41;;;;;;;;;;;;;;;17.84;40.31;102463.91;106122;1283;61116;-84